sensor_id;sensor_type;location;lat;lon;timestamp;temperature;humidity
27506;DHT22;14939;43.596;1.320;2023-02-28T00:00:34;1.20;97.40
27506;DHT22;14939;43.596;1.320;2023-02-28T00:03:01;1.20;97.30
27506;DHT22;14939;43.596;1.320;2023-02-28T00:05:28;1.20;97.40
27506;DHT22;14939;43.596;1.320;2023-02-28T00:07:54;1.20;97.70
27506;DHT22;14939;43.596;1.320;2023-02-28T00:10:27;1.10;97.70
27506;DHT22;14939;43.596;1.320;2023-02-28T00:12:55;1.10;98.00
27506;DHT22;14939;43.596;1.320;2023-02-28T00:15:23;1.00;98.00
27506;DHT22;14939;43.596;1.320;2023-02-28T00:17:49;1.00;97.90
27506;DHT22;14939;43.596;1.320;2023-02-28T00:20:16;1.00;98.10
27506;DHT22;14939;43.596;1.320;2023-02-28T00:22:45;1.00;98.10
27506;DHT22;14939;43.596;1.320;2023-02-28T00:25:13;1.00;98.00
27506;DHT22;14939;43.596;1.320;2023-02-28T00:27:39;0.90;98.30
27506;DHT22;14939;43.596;1.320;2023-02-28T00:30:07;1.00;98.20
27506;DHT22;14939;43.596;1.320;2023-02-28T00:32:33;0.90;98.40
27506;DHT22;14939;43.596;1.320;2023-02-28T00:35:00;0.90;98.60
27506;DHT22;14939;43.596;1.320;2023-02-28T00:37:25;0.90;98.40
27506;DHT22;14939;43.596;1.320;2023-02-28T00:39:51;0.90;98.70
27506;DHT22;14939;43.596;1.320;2023-02-28T00:42:17;0.90;98.60
27506;DHT22;14939;43.596;1.320;2023-02-28T00:44:43;0.90;98.70
27506;DHT22;14939;43.596;1.320;2023-02-28T00:47:08;0.90;98.70
27506;DHT22;14939;43.596;1.320;2023-02-28T00:49:34;0.90;98.90
27506;DHT22;14939;43.596;1.320;2023-02-28T00:52:00;0.90;98.60
27506;DHT22;14939;43.596;1.320;2023-02-28T00:54:25;0.90;98.80
27506;DHT22;14939;43.596;1.320;2023-02-28T00:56:51;0.90;99.00
27506;DHT22;14939;43.596;1.320;2023-02-28T00:59:17;0.80;99.50
27506;DHT22;14939;43.596;1.320;2023-02-28T01:01:44;0.80;99.40
27506;DHT22;14939;43.596;1.320;2023-02-28T01:04:10;0.80;99.70
27506;DHT22;14939;43.596;1.320;2023-02-28T01:06:36;0.80;99.80
27506;DHT22;14939;43.596;1.320;2023-02-28T01:09:03;0.90;99.90
27506;DHT22;14939;43.596;1.320;2023-02-28T01:11:29;0.90;99.90
27506;DHT22;14939;43.596;1.320;2023-02-28T01:13:54;0.90;99.80
27506;DHT22;14939;43.596;1.320;2023-02-28T01:16:20;1.00;99.70
27506;DHT22;14939;43.596;1.320;2023-02-28T01:18:46;1.00;99.60
27506;DHT22;14939;43.596;1.320;2023-02-28T01:21:15;1.00;99.70
27506;DHT22;14939;43.596;1.320;2023-02-28T01:23:42;1.00;99.80
27506;DHT22;14939;43.596;1.320;2023-02-28T01:26:22;1.10;99.90
27506;DHT22;14939;43.596;1.320;2023-02-28T01:28:49;1.10;99.80
27506;DHT22;14939;43.596;1.320;2023-02-28T01:31:15;1.10;99.90
27506;DHT22;14939;43.596;1.320;2023-02-28T01:33:41;1.10;99.90
27506;DHT22;14939;43.596;1.320;2023-02-28T01:36:21;1.10;99.90
27506;DHT22;14939;43.596;1.320;2023-02-28T01:38:48;1.10;99.80
27506;DHT22;14939;43.596;1.320;2023-02-28T01:41:26;1.10;99.90
27506;DHT22;14939;43.596;1.320;2023-02-28T01:46:56;1.10;99.90
27506;DHT22;14939;43.596;1.320;2023-02-28T01:49:22;1.10;99.90
27506;DHT22;14939;43.596;1.320;2023-02-28T01:51:54;1.10;99.90
27506;DHT22;14939;43.596;1.320;2023-02-28T01:54:29;1.20;99.80
27506;DHT22;14939;43.596;1.320;2023-02-28T01:57:09;1.20;99.70
27506;DHT22;14939;43.596;1.320;2023-02-28T01:59:50;1.20;99.90
27506;DHT22;14939;43.596;1.320;2023-02-28T02:02:19;1.20;99.60
27506;DHT22;14939;43.596;1.320;2023-02-28T02:05:06;1.30;99.60
27506;DHT22;14939;43.596;1.320;2023-02-28T02:07:35;1.30;99.70
27506;DHT22;14939;43.596;1.320;2023-02-28T02:10:05;1.30;99.40
27506;DHT22;14939;43.596;1.320;2023-02-28T02:12:43;1.30;99.30
27506;DHT22;14939;43.596;1.320;2023-02-28T02:15:28;1.40;99.20
27506;DHT22;14939;43.596;1.320;2023-02-28T02:17:57;1.40;99.30
27506;DHT22;14939;43.596;1.320;2023-02-28T02:20:46;1.40;99.20
27506;DHT22;14939;43.596;1.320;2023-02-28T02:29:02;1.40;99.60
27506;DHT22;14939;43.596;1.320;2023-02-28T02:37:38;1.40;99.70
27506;DHT22;14939;43.596;1.320;2023-02-28T02:40:28;1.40;99.90
27506;DHT22;14939;43.596;1.320;2023-02-28T02:48:14;1.40;99.90
27506;DHT22;14939;43.596;1.320;2023-02-28T02:50:51;1.40;99.90
27506;DHT22;14939;43.596;1.320;2023-02-28T02:53:57;1.40;99.90
27506;DHT22;14939;43.596;1.320;2023-02-28T02:56:27;1.50;99.90
27506;DHT22;14939;43.596;1.320;2023-02-28T02:58:55;1.50;99.90
27506;DHT22;14939;43.596;1.320;2023-02-28T03:01:24;1.40;99.90
27506;DHT22;14939;43.596;1.320;2023-02-28T03:04:17;1.50;99.90
27506;DHT22;14939;43.596;1.320;2023-02-28T03:06:44;1.40;99.90
27506;DHT22;14939;43.596;1.320;2023-02-28T03:09:09;1.40;99.90
27506;DHT22;14939;43.596;1.320;2023-02-28T03:11:37;1.50;99.90
27506;DHT22;14939;43.596;1.320;2023-02-28T03:16:56;1.50;99.90
27506;DHT22;14939;43.596;1.320;2023-02-28T03:22:14;1.50;99.90
27506;DHT22;14939;43.596;1.320;2023-02-28T03:25:12;1.50;99.90
27506;DHT22;14939;43.596;1.320;2023-02-28T03:33:15;1.40;99.90
27506;DHT22;14939;43.596;1.320;2023-02-28T03:35:49;1.40;99.90
27506;DHT22;14939;43.596;1.320;2023-02-28T03:38:24;1.50;99.90
27506;DHT22;14939;43.596;1.320;2023-02-28T03:40:57;1.50;99.90
27506;DHT22;14939;43.596;1.320;2023-02-28T03:43:29;1.50;99.90
27506;DHT22;14939;43.596;1.320;2023-02-28T03:45:57;1.50;99.90
27506;DHT22;14939;43.596;1.320;2023-02-28T03:48:32;1.50;99.90
27506;DHT22;14939;43.596;1.320;2023-02-28T03:51:03;1.50;99.90
27506;DHT22;14939;43.596;1.320;2023-02-28T03:53:33;1.40;99.90
27506;DHT22;14939;43.596;1.320;2023-02-28T03:56:05;1.40;99.90
27506;DHT22;14939;43.596;1.320;2023-02-28T04:03:59;1.40;99.90
27506;DHT22;14939;43.596;1.320;2023-02-28T04:06:25;1.20;99.90
27506;DHT22;14939;43.596;1.320;2023-02-28T04:08:51;1.20;99.90
27506;DHT22;14939;43.596;1.320;2023-02-28T04:11:24;1.20;99.90
27506;DHT22;14939;43.596;1.320;2023-02-28T04:13:53;1.10;99.90
27506;DHT22;14939;43.596;1.320;2023-02-28T04:16:19;1.10;99.90
27506;DHT22;14939;43.596;1.320;2023-02-28T04:18:44;1.10;99.90
27506;DHT22;14939;43.596;1.320;2023-02-28T04:21:11;1.10;99.90
27506;DHT22;14939;43.596;1.320;2023-02-28T04:23:37;1.10;99.90
27506;DHT22;14939;43.596;1.320;2023-02-28T04:26:03;1.10;99.90
27506;DHT22;14939;43.596;1.320;2023-02-28T04:28:29;1.00;99.90
27506;DHT22;14939;43.596;1.320;2023-02-28T04:31:03;1.00;99.90
27506;DHT22;14939;43.596;1.320;2023-02-28T04:33:30;0.90;99.90
27506;DHT22;14939;43.596;1.320;2023-02-28T04:36:04;0.90;99.90
27506;DHT22;14939;43.596;1.320;2023-02-28T04:38:35;0.80;99.90
27506;DHT22;14939;43.596;1.320;2023-02-28T04:41:01;0.80;99.90
27506;DHT22;14939;43.596;1.320;2023-02-28T04:43:27;0.70;99.90
27506;DHT22;14939;43.596;1.320;2023-02-28T04:45:54;0.70;99.90
27506;DHT22;14939;43.596;1.320;2023-02-28T04:48:24;0.70;99.90
27506;DHT22;14939;43.596;1.320;2023-02-28T04:50:50;0.70;99.90
27506;DHT22;14939;43.596;1.320;2023-02-28T04:53:16;0.50;99.90
27506;DHT22;14939;43.596;1.320;2023-02-28T04:55:42;0.60;99.90
27506;DHT22;14939;43.596;1.320;2023-02-28T04:58:08;0.50;99.90
27506;DHT22;14939;43.596;1.320;2023-02-28T05:00:33;0.50;99.90
27506;DHT22;14939;43.596;1.320;2023-02-28T05:02:59;0.40;99.90
27506;DHT22;14939;43.596;1.320;2023-02-28T05:05:25;0.40;99.90
27506;DHT22;14939;43.596;1.320;2023-02-28T05:07:50;0.40;99.90
27506;DHT22;14939;43.596;1.320;2023-02-28T05:10:16;0.30;99.90
27506;DHT22;14939;43.596;1.320;2023-02-28T05:12:42;0.30;99.90
27506;DHT22;14939;43.596;1.320;2023-02-28T05:15:13;0.20;99.90
27506;DHT22;14939;43.596;1.320;2023-02-28T05:17:39;0.20;99.90
27506;DHT22;14939;43.596;1.320;2023-02-28T05:20:05;0.20;99.90
27506;DHT22;14939;43.596;1.320;2023-02-28T05:22:31;0.20;99.90
27506;DHT22;14939;43.596;1.320;2023-02-28T05:24:57;0.10;99.90
27506;DHT22;14939;43.596;1.320;2023-02-28T05:27:23;0.10;99.90
27506;DHT22;14939;43.596;1.320;2023-02-28T05:29:49;0.10;99.90
27506;DHT22;14939;43.596;1.320;2023-02-28T05:32:15;0.00;99.90
27506;DHT22;14939;43.596;1.320;2023-02-28T05:34:41;0.00;99.90
27506;DHT22;14939;43.596;1.320;2023-02-28T05:37:11;-0.10;99.90
27506;DHT22;14939;43.596;1.320;2023-02-28T05:39:37;-0.20;99.90
27506;DHT22;14939;43.596;1.320;2023-02-28T05:42:03;-0.20;99.90
27506;DHT22;14939;43.596;1.320;2023-02-28T05:44:29;-0.30;99.90
27506;DHT22;14939;43.596;1.320;2023-02-28T05:46:54;-0.30;99.90
27506;DHT22;14939;43.596;1.320;2023-02-28T05:49:20;-0.30;99.90
27506;DHT22;14939;43.596;1.320;2023-02-28T05:51:46;-0.40;99.90
27506;DHT22;14939;43.596;1.320;2023-02-28T05:54:11;-0.40;99.90
27506;DHT22;14939;43.596;1.320;2023-02-28T05:56:37;-0.50;99.90
27506;DHT22;14939;43.596;1.320;2023-02-28T05:59:09;-0.50;99.90
27506;DHT22;14939;43.596;1.320;2023-02-28T06:04:04;-0.60;99.90
27506;DHT22;14939;43.596;1.320;2023-02-28T06:06:31;-0.70;99.90
27506;DHT22;14939;43.596;1.320;2023-02-28T06:08:59;-0.60;99.90
27506;DHT22;14939;43.596;1.320;2023-02-28T06:11:26;-0.70;99.90
27506;DHT22;14939;43.596;1.320;2023-02-28T06:13:59;-0.70;99.90
27506;DHT22;14939;43.596;1.320;2023-02-28T06:16:31;-0.70;99.90
27506;DHT22;14939;43.596;1.320;2023-02-28T06:18:58;-0.70;99.90
27506;DHT22;14939;43.596;1.320;2023-02-28T06:21:25;-0.70;99.90
27506;DHT22;14939;43.596;1.320;2023-02-28T06:23:51;-0.70;99.90
27506;DHT22;14939;43.596;1.320;2023-02-28T06:26:16;-0.60;99.90
27506;DHT22;14939;43.596;1.320;2023-02-28T06:28:42;-0.60;99.90
27506;DHT22;14939;43.596;1.320;2023-02-28T06:31:14;-0.70;99.90
27506;DHT22;14939;43.596;1.320;2023-02-28T06:33:40;-0.60;99.90
27506;DHT22;14939;43.596;1.320;2023-02-28T06:36:07;-0.60;99.90
27506;DHT22;14939;43.596;1.320;2023-02-28T06:38:33;-0.60;99.90
27506;DHT22;14939;43.596;1.320;2023-02-28T06:41:00;-0.60;99.90
27506;DHT22;14939;43.596;1.320;2023-02-28T06:43:28;-0.50;99.90
27506;DHT22;14939;43.596;1.320;2023-02-28T06:45:56;-0.50;99.90
27506;DHT22;14939;43.596;1.320;2023-02-28T06:48:22;-0.40;99.90
27506;DHT22;14939;43.596;1.320;2023-02-28T06:50:48;-0.50;99.90
27506;DHT22;14939;43.596;1.320;2023-02-28T06:53:13;-0.40;99.90
27506;DHT22;14939;43.596;1.320;2023-02-28T06:55:40;-0.40;99.90
27506;DHT22;14939;43.596;1.320;2023-02-28T06:58:06;-0.40;99.90
27506;DHT22;14939;43.596;1.320;2023-02-28T07:00:44;-0.40;99.90
27506;DHT22;14939;43.596;1.320;2023-02-28T07:03:11;-0.40;99.90
27506;DHT22;14939;43.596;1.320;2023-02-28T07:05:38;-0.40;99.90
27506;DHT22;14939;43.596;1.320;2023-02-28T07:08:05;-0.30;99.90
27506;DHT22;14939;43.596;1.320;2023-02-28T07:10:32;-0.30;99.90
27506;DHT22;14939;43.596;1.320;2023-02-28T07:12:59;-0.30;99.90
27506;DHT22;14939;43.596;1.320;2023-02-28T07:15:24;-0.30;99.90
27506;DHT22;14939;43.596;1.320;2023-02-28T07:17:50;-0.30;99.90
27506;DHT22;14939;43.596;1.320;2023-02-28T07:20:16;-0.30;99.90
27506;DHT22;14939;43.596;1.320;2023-02-28T07:22:42;-0.30;99.90
27506;DHT22;14939;43.596;1.320;2023-02-28T07:25:08;-0.20;99.90
27506;DHT22;14939;43.596;1.320;2023-02-28T07:27:34;-0.20;99.90
27506;DHT22;14939;43.596;1.320;2023-02-28T07:30:00;-0.20;99.90
27506;DHT22;14939;43.596;1.320;2023-02-28T07:32:27;-0.10;99.90
27506;DHT22;14939;43.596;1.320;2023-02-28T07:34:53;-0.10;99.90
27506;DHT22;14939;43.596;1.320;2023-02-28T07:37:19;-0.10;99.90
27506;DHT22;14939;43.596;1.320;2023-02-28T07:39:45;-0.10;99.90
27506;DHT22;14939;43.596;1.320;2023-02-28T07:42:11;0.10;99.90
27506;DHT22;14939;43.596;1.320;2023-02-28T07:44:41;0.20;99.90
27506;DHT22;14939;43.596;1.320;2023-02-28T07:47:09;0.30;99.90
27506;DHT22;14939;43.596;1.320;2023-02-28T07:49:38;0.40;99.90
27506;DHT22;14939;43.596;1.320;2023-02-28T07:52:06;0.50;99.90
27506;DHT22;14939;43.596;1.320;2023-02-28T07:54:33;0.60;99.90
27506;DHT22;14939;43.596;1.320;2023-02-28T07:56:59;0.80;99.90
27506;DHT22;14939;43.596;1.320;2023-02-28T07:59:24;0.90;99.90
27506;DHT22;14939;43.596;1.320;2023-02-28T08:01:51;0.90;99.90
27506;DHT22;14939;43.596;1.320;2023-02-28T08:04:17;0.90;99.90
27506;DHT22;14939;43.596;1.320;2023-02-28T08:06:43;1.00;99.90
27506;DHT22;14939;43.596;1.320;2023-02-28T08:09:16;1.10;99.90
27506;DHT22;14939;43.596;1.320;2023-02-28T08:11:41;1.30;99.90
27506;DHT22;14939;43.596;1.320;2023-02-28T08:14:07;1.50;99.90
27506;DHT22;14939;43.596;1.320;2023-02-28T08:16:32;1.70;99.90
27506;DHT22;14939;43.596;1.320;2023-02-28T08:18:58;1.90;99.90
27506;DHT22;14939;43.596;1.320;2023-02-28T08:21:24;2.10;99.90
27506;DHT22;14939;43.596;1.320;2023-02-28T08:23:51;2.20;99.90
27506;DHT22;14939;43.596;1.320;2023-02-28T08:26:17;2.40;99.90
27506;DHT22;14939;43.596;1.320;2023-02-28T08:28:43;2.50;99.90
27506;DHT22;14939;43.596;1.320;2023-02-28T08:31:15;2.50;99.30
27506;DHT22;14939;43.596;1.320;2023-02-28T08:33:42;2.60;99.60
27506;DHT22;14939;43.596;1.320;2023-02-28T08:36:08;2.70;98.80
27506;DHT22;14939;43.596;1.320;2023-02-28T08:38:35;2.80;98.60
27506;DHT22;14939;43.596;1.320;2023-02-28T08:41:04;2.80;98.40
27506;DHT22;14939;43.596;1.320;2023-02-28T08:43:31;2.70;98.70
27506;DHT22;14939;43.596;1.320;2023-02-28T08:45:57;2.90;98.30
27506;DHT22;14939;43.596;1.320;2023-02-28T08:48:24;2.90;98.30
27506;DHT22;14939;43.596;1.320;2023-02-28T08:51:07;2.90;97.90
27506;DHT22;14939;43.596;1.320;2023-02-28T08:53:35;2.90;97.70
27506;DHT22;14939;43.596;1.320;2023-02-28T08:56:04;2.80;97.70
27506;DHT22;14939;43.596;1.320;2023-02-28T08:58:30;2.70;98.20
27506;DHT22;14939;43.596;1.320;2023-02-28T09:00:56;2.70;98.30
27506;DHT22;14939;43.596;1.320;2023-02-28T09:03:22;2.60;98.20
27506;DHT22;14939;43.596;1.320;2023-02-28T09:05:59;2.60;98.40
27506;DHT22;14939;43.596;1.320;2023-02-28T09:08:28;2.60;98.50
27506;DHT22;14939;43.596;1.320;2023-02-28T09:10:54;2.70;97.90
27506;DHT22;14939;43.596;1.320;2023-02-28T09:13:22;2.80;97.90
27506;DHT22;14939;43.596;1.320;2023-02-28T09:15:48;2.90;97.20
27506;DHT22;14939;43.596;1.320;2023-02-28T09:18:14;3.10;96.70
27506;DHT22;14939;43.596;1.320;2023-02-28T09:20:43;3.10;95.70
27506;DHT22;14939;43.596;1.320;2023-02-28T09:23:10;3.00;95.30
27506;DHT22;14939;43.596;1.320;2023-02-28T09:25:37;3.10;95.10
27506;DHT22;14939;43.596;1.320;2023-02-28T09:28:03;3.10;94.70
27506;DHT22;14939;43.596;1.320;2023-02-28T09:30:29;3.10;95.10
27506;DHT22;14939;43.596;1.320;2023-02-28T09:32:55;3.10;95.20
27506;DHT22;14939;43.596;1.320;2023-02-28T09:35:22;3.20;95.10
27506;DHT22;14939;43.596;1.320;2023-02-28T09:37:50;3.30;94.50
27506;DHT22;14939;43.596;1.320;2023-02-28T09:40:20;3.30;94.20
27506;DHT22;14939;43.596;1.320;2023-02-28T09:42:48;3.30;94.80
27506;DHT22;14939;43.596;1.320;2023-02-28T09:45:34;3.60;94.80
27506;DHT22;14939;43.596;1.320;2023-02-28T09:48:21;3.40;94.60
27506;DHT22;14939;43.596;1.320;2023-02-28T09:51:00;3.50;95.10
27506;DHT22;14939;43.596;1.320;2023-02-28T09:53:31;3.60;94.40
27506;DHT22;14939;43.596;1.320;2023-02-28T09:58:37;3.90;93.20
27506;DHT22;14939;43.596;1.320;2023-02-28T10:04:00;4.00;92.80
27506;DHT22;14939;43.596;1.320;2023-02-28T10:06:44;4.00;92.50
27506;DHT22;14939;43.596;1.320;2023-02-28T10:09:15;3.80;91.70
27506;DHT22;14939;43.596;1.320;2023-02-28T10:11:44;3.70;91.70
27506;DHT22;14939;43.596;1.320;2023-02-28T10:14:15;3.80;92.00
27506;DHT22;14939;43.596;1.320;2023-02-28T10:19:49;3.90;91.20
27506;DHT22;14939;43.596;1.320;2023-02-28T10:24:39;4.20;90.90
27506;DHT22;14939;43.596;1.320;2023-02-28T10:27:29;4.00;91.40
27506;DHT22;14939;43.596;1.320;2023-02-28T10:30:00;3.90;91.50
27506;DHT22;14939;43.596;1.320;2023-02-28T10:32:32;4.10;91.40
27506;DHT22;14939;43.596;1.320;2023-02-28T10:35:17;4.10;90.80
27506;DHT22;14939;43.596;1.320;2023-02-28T10:37:46;4.30;90.90
27506;DHT22;14939;43.596;1.320;2023-02-28T10:43:06;4.50;90.00
27506;DHT22;14939;43.596;1.320;2023-02-28T10:46:01;4.30;88.60
27506;DHT22;14939;43.596;1.320;2023-02-28T10:50:53;4.40;86.80
27506;DHT22;14939;43.596;1.320;2023-02-28T10:58:23;4.30;87.10
27506;DHT22;14939;43.596;1.320;2023-02-28T11:00:50;4.30;87.30
27506;DHT22;14939;43.596;1.320;2023-02-28T11:03:33;4.30;88.00
27506;DHT22;14939;43.596;1.320;2023-02-28T11:06:26;4.30;88.00
27506;DHT22;14939;43.596;1.320;2023-02-28T11:08:57;4.40;88.10
27506;DHT22;14939;43.596;1.320;2023-02-28T11:11:26;4.40;88.90
27506;DHT22;14939;43.596;1.320;2023-02-28T11:13:56;4.60;89.40
27506;DHT22;14939;43.596;1.320;2023-02-28T11:16:35;4.90;86.90
27506;DHT22;14939;43.596;1.320;2023-02-28T11:19:02;5.00;86.80
27506;DHT22;14939;43.596;1.320;2023-02-28T11:21:31;5.00;84.30
27506;DHT22;14939;43.596;1.320;2023-02-28T11:29:27;4.90;81.30
27506;DHT22;14939;43.596;1.320;2023-02-28T11:32:23;4.90;82.70
27506;DHT22;14939;43.596;1.320;2023-02-28T11:37:34;5.10;79.40
27506;DHT22;14939;43.596;1.320;2023-02-28T11:40:00;5.00;81.20
27506;DHT22;14939;43.596;1.320;2023-02-28T11:56:46;5.80;74.00
27506;DHT22;14939;43.596;1.320;2023-02-28T12:02:05;6.20;71.60
27506;DHT22;14939;43.596;1.320;2023-02-28T12:05:04;6.20;70.00
27506;DHT22;14939;43.596;1.320;2023-02-28T12:08:06;6.30;68.90
27506;DHT22;14939;43.596;1.320;2023-02-28T12:11:28;6.40;67.70
27506;DHT22;14939;43.596;1.320;2023-02-28T12:16:46;6.30;65.80
27506;DHT22;14939;43.596;1.320;2023-02-28T12:22:04;6.50;65.20
27506;DHT22;14939;43.596;1.320;2023-02-28T12:27:14;6.40;65.60
27506;DHT22;14939;43.596;1.320;2023-02-28T12:29:45;6.50;65.10
27506;DHT22;14939;43.596;1.320;2023-02-28T12:32:25;6.30;64.70
27506;DHT22;14939;43.596;1.320;2023-02-28T12:35:02;6.40;65.20
27506;DHT22;14939;43.596;1.320;2023-02-28T12:37:56;6.40;63.80
27506;DHT22;14939;43.596;1.320;2023-02-28T12:40:27;6.30;63.00
27506;DHT22;14939;43.596;1.320;2023-02-28T12:43:02;6.60;64.60
27506;DHT22;14939;43.596;1.320;2023-02-28T12:45:41;6.30;63.70
27506;DHT22;14939;43.596;1.320;2023-02-28T12:48:14;6.20;64.00
27506;DHT22;14939;43.596;1.320;2023-02-28T12:50:41;6.20;63.20
27506;DHT22;14939;43.596;1.320;2023-02-28T12:53:18;6.20;61.20
27506;DHT22;14939;43.596;1.320;2023-02-28T12:56:08;6.10;61.50
27506;DHT22;14939;43.596;1.320;2023-02-28T13:07:15;6.10;59.70
27506;DHT22;14939;43.596;1.320;2023-02-28T13:09:59;5.90;60.40
27506;DHT22;14939;43.596;1.320;2023-02-28T13:12:25;5.90;60.60
27506;DHT22;14939;43.596;1.320;2023-02-28T13:17:39;6.20;58.80
27506;DHT22;14939;43.596;1.320;2023-02-28T13:20:16;6.10;58.70
27506;DHT22;14939;43.596;1.320;2023-02-28T13:22:45;6.30;58.70
27506;DHT22;14939;43.596;1.320;2023-02-28T13:28:12;6.30;57.60
27506;DHT22;14939;43.596;1.320;2023-02-28T13:33:34;6.30;55.50
27506;DHT22;14939;43.596;1.320;2023-02-28T13:38:33;6.50;54.10
27506;DHT22;14939;43.596;1.320;2023-02-28T13:46:32;6.50;53.20
27506;DHT22;14939;43.596;1.320;2023-02-28T13:49:27;6.70;52.70
27506;DHT22;14939;43.596;1.320;2023-02-28T14:06:21;6.60;50.70
27506;DHT22;14939;43.596;1.320;2023-02-28T14:09:01;6.60;51.60
27506;DHT22;14939;43.596;1.320;2023-02-28T14:11:38;6.50;51.80
27506;DHT22;14939;43.596;1.320;2023-02-28T14:14:05;6.40;53.80
27506;DHT22;14939;43.596;1.320;2023-02-28T14:16:44;6.30;55.70
27506;DHT22;14939;43.596;1.320;2023-02-28T14:19:28;6.10;55.90
27506;DHT22;14939;43.596;1.320;2023-02-28T14:22:29;5.90;55.50
27506;DHT22;14939;43.596;1.320;2023-02-28T14:25:22;6.10;55.90
27506;DHT22;14939;43.596;1.320;2023-02-28T14:27:58;6.10;55.70
27506;DHT22;14939;43.596;1.320;2023-02-28T14:33:42;6.10;54.20
27506;DHT22;14939;43.596;1.320;2023-02-28T14:36:31;6.10;53.90
27506;DHT22;14939;43.596;1.320;2023-02-28T14:39:00;6.00;54.30
27506;DHT22;14939;43.596;1.320;2023-02-28T14:41:31;6.10;52.90
27506;DHT22;14939;43.596;1.320;2023-02-28T14:43:59;6.30;53.60
27506;DHT22;14939;43.596;1.320;2023-02-28T14:46:46;6.20;53.60
27506;DHT22;14939;43.596;1.320;2023-02-28T14:49:27;5.90;52.60
27506;DHT22;14939;43.596;1.320;2023-02-28T14:52:17;5.80;52.70
27506;DHT22;14939;43.596;1.320;2023-02-28T14:54:44;6.10;53.20
27506;DHT22;14939;43.596;1.320;2023-02-28T14:57:24;6.20;53.30
27506;DHT22;14939;43.596;1.320;2023-02-28T15:00:00;6.20;52.40
27506;DHT22;14939;43.596;1.320;2023-02-28T15:02:33;6.20;53.40
27506;DHT22;14939;43.596;1.320;2023-02-28T15:05:10;5.90;52.80
27506;DHT22;14939;43.596;1.320;2023-02-28T15:07:43;5.80;52.60
27506;DHT22;14939;43.596;1.320;2023-02-28T15:12:51;5.90;52.90
27506;DHT22;14939;43.596;1.320;2023-02-28T15:15:18;5.80;52.10
27506;DHT22;14939;43.596;1.320;2023-02-28T15:17:49;5.80;52.00
27506;DHT22;14939;43.596;1.320;2023-02-28T15:20:16;5.70;52.30
27506;DHT22;14939;43.596;1.320;2023-02-28T15:22:42;5.70;52.90
27506;DHT22;14939;43.596;1.320;2023-02-28T15:25:10;5.80;52.90
27506;DHT22;14939;43.596;1.320;2023-02-28T15:27:44;5.80;52.30
27506;DHT22;14939;43.596;1.320;2023-02-28T15:30:28;5.70;52.50
27506;DHT22;14939;43.596;1.320;2023-02-28T15:35:39;5.60;53.10
27506;DHT22;14939;43.596;1.320;2023-02-28T15:38:23;5.40;52.10
27506;DHT22;14939;43.596;1.320;2023-02-28T15:40:53;5.50;52.80
27506;DHT22;14939;43.596;1.320;2023-02-28T15:46:06;5.50;53.10
27506;DHT22;14939;43.596;1.320;2023-02-28T15:48:53;5.50;52.50
27506;DHT22;14939;43.596;1.320;2023-02-28T15:51:27;5.40;53.50
27506;DHT22;14939;43.596;1.320;2023-02-28T15:54:27;5.40;52.30
27506;DHT22;14939;43.596;1.320;2023-02-28T15:56:56;5.30;52.40
27506;DHT22;14939;43.596;1.320;2023-02-28T15:59:27;5.30;51.90
27506;DHT22;14939;43.596;1.320;2023-02-28T16:02:16;5.30;52.30
27506;DHT22;14939;43.596;1.320;2023-02-28T16:07:28;5.30;52.60
27506;DHT22;14939;43.596;1.320;2023-02-28T16:09:54;5.30;53.60
27506;DHT22;14939;43.596;1.320;2023-02-28T16:12:21;5.30;52.90
27506;DHT22;14939;43.596;1.320;2023-02-28T16:14:51;5.20;53.00
27506;DHT22;14939;43.596;1.320;2023-02-28T16:17:25;5.10;52.30
27506;DHT22;14939;43.596;1.320;2023-02-28T16:19:52;5.10;52.70
27506;DHT22;14939;43.596;1.320;2023-02-28T16:22:17;5.10;53.50
27506;DHT22;14939;43.596;1.320;2023-02-28T16:24:43;5.10;53.70
27506;DHT22;14939;43.596;1.320;2023-02-28T16:27:33;5.10;53.50
27506;DHT22;14939;43.596;1.320;2023-02-28T16:30:02;5.10;53.30
27506;DHT22;14939;43.596;1.320;2023-02-28T16:32:28;5.10;53.70
27506;DHT22;14939;43.596;1.320;2023-02-28T16:34:55;5.10;53.40
27506;DHT22;14939;43.596;1.320;2023-02-28T16:37:20;5.10;53.30
27506;DHT22;14939;43.596;1.320;2023-02-28T16:39:46;5.10;52.60
27506;DHT22;14939;43.596;1.320;2023-02-28T16:42:20;5.10;52.40
27506;DHT22;14939;43.596;1.320;2023-02-28T16:44:47;5.10;53.10
27506;DHT22;14939;43.596;1.320;2023-02-28T16:47:13;5.10;52.60
27506;DHT22;14939;43.596;1.320;2023-02-28T16:49:39;5.10;52.20
27506;DHT22;14939;43.596;1.320;2023-02-28T16:52:07;5.00;52.30
27506;DHT22;14939;43.596;1.320;2023-02-28T16:54:33;5.00;52.90
27506;DHT22;14939;43.596;1.320;2023-02-28T16:56:59;5.00;53.60
27506;DHT22;14939;43.596;1.320;2023-02-28T16:59:26;5.00;53.70
27506;DHT22;14939;43.596;1.320;2023-02-28T17:01:53;4.90;54.50
27506;DHT22;14939;43.596;1.320;2023-02-28T17:04:19;4.90;55.70
27506;DHT22;14939;43.596;1.320;2023-02-28T17:06:45;4.90;56.10
27506;DHT22;14939;43.596;1.320;2023-02-28T17:09:19;4.80;56.80
27506;DHT22;14939;43.596;1.320;2023-02-28T17:11:46;4.80;57.60
27506;DHT22;14939;43.596;1.320;2023-02-28T17:14:12;4.70;58.10
27506;DHT22;14939;43.596;1.320;2023-02-28T17:16:39;4.60;58.80
27506;DHT22;14939;43.596;1.320;2023-02-28T17:19:12;4.60;59.10
27506;DHT22;14939;43.596;1.320;2023-02-28T17:21:39;4.60;59.50
27506;DHT22;14939;43.596;1.320;2023-02-28T17:24:07;4.50;58.60
27506;DHT22;14939;43.596;1.320;2023-02-28T17:26:33;4.50;59.30
27506;DHT22;14939;43.596;1.320;2023-02-28T17:28:58;4.40;58.50
27506;DHT22;14939;43.596;1.320;2023-02-28T17:31:25;4.40;59.40
27506;DHT22;14939;43.596;1.320;2023-02-28T17:33:52;4.30;59.50
27506;DHT22;14939;43.596;1.320;2023-02-28T17:36:22;4.30;59.00
27506;DHT22;14939;43.596;1.320;2023-02-28T17:38:48;4.30;59.20
27506;DHT22;14939;43.596;1.320;2023-02-28T17:41:15;4.30;59.20
27506;DHT22;14939;43.596;1.320;2023-02-28T17:43:41;4.20;59.70
27506;DHT22;14939;43.596;1.320;2023-02-28T17:46:29;4.30;59.00
27506;DHT22;14939;43.596;1.320;2023-02-28T17:48:55;4.20;58.90
27506;DHT22;14939;43.596;1.320;2023-02-28T17:51:23;4.20;58.90
27506;DHT22;14939;43.596;1.320;2023-02-28T17:53:49;4.10;58.90
27506;DHT22;14939;43.596;1.320;2023-02-28T17:56:18;4.10;59.20
27506;DHT22;14939;43.596;1.320;2023-02-28T17:58:44;4.10;58.30
27506;DHT22;14939;43.596;1.320;2023-02-28T18:01:10;4.10;58.60
27506;DHT22;14939;43.596;1.320;2023-02-28T18:03:37;4.10;59.10
27506;DHT22;14939;43.596;1.320;2023-02-28T18:06:03;4.10;59.80
27506;DHT22;14939;43.596;1.320;2023-02-28T18:08:29;4.10;58.90
27506;DHT22;14939;43.596;1.320;2023-02-28T18:10:56;4.00;58.90
27506;DHT22;14939;43.596;1.320;2023-02-28T18:13:21;4.00;59.60
27506;DHT22;14939;43.596;1.320;2023-02-28T18:15:47;4.00;59.80
27506;DHT22;14939;43.596;1.320;2023-02-28T18:18:13;4.00;59.90
27506;DHT22;14939;43.596;1.320;2023-02-28T18:20:41;4.00;59.90
27506;DHT22;14939;43.596;1.320;2023-02-28T18:23:06;4.00;60.40
27506;DHT22;14939;43.596;1.320;2023-02-28T18:25:32;4.00;60.00
27506;DHT22;14939;43.596;1.320;2023-02-28T18:27:58;4.00;59.70
27506;DHT22;14939;43.596;1.320;2023-02-28T18:30:29;4.00;60.30
27506;DHT22;14939;43.596;1.320;2023-02-28T18:32:56;4.00;59.90